Wednesday, June 20, 2018, 10:55 AM EDT
Back to Local

KLFI, Langley Air Force Base

Location: Hampton, VA, United States Lat: 37.083
Local Time: 10:55 AM EDT (14:55 GMT) Lon: -76.35
Time Zone: US/Eastern Elev: 9 ft

Show me the last for .
Show Coded

Time T Td Feel RH Dir Speed Gust Alt SLP Vis Weather Sky Remarks
2018-06-20 09:56 83 74 90 75 20° 6 - 29.88 29.90 9 SCT017 None
2018-06-20 08:56 81 76 88 85 40° 3 - 29.88 29.90 7 SCT040 1-hr Precip Total: Trace
2018-06-20 07:56 78 76 84 94 - Calm - 29.88 29.90 7 SCT008 24-hr Precip Total (8am): 0.07"
6-hr Min Temp (8am): 74.1°F
6-hr Max Temp (8am): 77.5°F
2018-06-20 06:56 76 76 81 100 320° 3 - 29.87 29.89 7 BR SCT006 None
2018-06-20 06:41 75 75 81 100 320° 5 - 29.86 29.88 7 BR SCT006 None
2018-06-20 06:26 75 75 81 100 330° 6 - 29.86 29.88 5 BR SCT006 None
2018-06-20 05:56 74 74 79 100 340° 5 - 29.85 29.87 4 BR SCT006 None
2018-06-20 05:11 75 75 81 100 330° 6 - 29.85 29.87 6 BR OVC006 None
2018-06-20 04:56 75 75 80 100 330° 6 - 29.84 29.86 6 BR OVC005 None
2018-06-20 04:41 75 75 81 100 300° 3 - 29.84 29.86 5 BR OVC005 None
2018-06-20 04:26 75 75 81 100 300° 3 - 29.84 29.86 6 BR OVC004 None
2018-06-20 03:56 74 74 79 100 300° 5 - 29.84 29.86 6 BR BKN003 None
2018-06-20 03:13 75 75 81 100 300° 6 - 29.85 29.87 7 FEW004 None
2018-06-20 02:56 74 74 79 100 280° 7 - 29.85 29.87 8 CLR None
2018-06-20 01:56 74 74 79 100 310° 6 - 29.85 29.87 10 FEW170 6-hr Precip Total (2am): 0.07"
6-hr Min Temp (2am): 74.3°F
6-hr Max Temp (2am): 78.6°F
2018-06-20 00:56 74 74 79 100 270° 6 - 29.87 29.89 10 SCT220 24-hr Min Temp (1am): 74.5°F
24-hr Max Temp (1am): 96.4°F
2018-06-19 23:56 75 74 80 97 330° 6 - 29.87 29.89 10 CLR 1-hr Precip Total: Trace
2018-06-19 22:56 75 75 81 100 - Calm - 29.86 29.88 10 SCT080 BKN110 1-hr Precip Total: 0.01"
6-hr Precip Total (11pm): 0.07"
2018-06-19 22:04 75 75 81 100 250° 6 - 29.86 29.88 9 SCT080 OVC150 None
2018-06-19 22:03 75 75 81 100 250° 6 - 29.86 29.88 9 -RA SCT080 OVC150 None
2018-06-19 21:56 76 76 81 100 - Calm - 29.85 29.87 10 -RA FEW150 1-hr Precip Total: 0.03"
2018-06-19 21:54 75 75 81 100 270° 3 - 29.85 29.87 10 -RA FEW150 None
2018-06-19 21:11 75 75 81 100 340° 9 - 29.84 29.86 7 -RA BKN080 Pressure falling rapidly
2018-06-19 20:56 76 74 81 94 330° 8 - 29.86 29.88 4 -TSRA BR BKN080 1-hr Precip Total: 0.03"
2018-06-19 20:21 79 77 86 94 360° 6 - 29.86 29.88 6 -TSRA BR FEW017 SCT055 None
2018-06-19 20:20 79 77 86 94 360° 6 - 29.86 29.88 6 -TSRA FEW017 SCT055 None
2018-06-19 20:11 79 75 85 88 350° 9 - 29.86 29.88 9 -RA SCT017 BKN055 Pressure falling rapidly
2018-06-19 19:56 78 76 85 92 10° 8 - 29.88 29.90 9 BKN055 Pressure rising rapidly
6-hr Min Temp (8pm): 78.4°F
6-hr Max Temp (8pm): 96.4°F
2018-06-19 19:18 81 75 87 83 10° 16 24 29.84 29.86 8 FEW019 SCT050 BKN060 BKN080 None
2018-06-19 19:04 81 75 87 83 10° 18 26 29.84 29.86 10 TS FEW042 BKN055 None
2018-06-19 19:03 82 75 90 78 10° 21 32 29.84 29.86 6 -TSRA FEW008 SCT040 BKN060 None
2018-06-19 18:56 83 75 91 75 360° 25 37 29.83 29.85 10 VCTS FEW044 BKN060 Peak wind: 36 mph (32 kts) from 350° at 48 min
Pressure rising rapidly
2018-06-19 18:55 84 75 91 74 10° 25 37 29.83 29.85 10 VCTS FEW040 SCT050 BKN060 Peak wind: 36 mph (32 kts) from 350° at 48 min
Pressure rising rapidly
2018-06-19 17:56 94 73 104 49 - Calm - 29.77 29.79 9 SCT070 None
2018-06-19 16:56 93 74 105 53 80° 7 - 29.78 29.80 9 FEW065 SCT085 BKN110 None
2018-06-19 15:56 95 74 107 51 80° 8 - 29.80 29.82 9 BKN060 None
2018-06-19 14:56 96 74 108 48 250° 9 - 29.81 29.83 9 SCT050 None
2018-06-19 13:56 95 73 105 48 260° 12 - 29.82 29.84 8 CLR 6-hr Min Temp (2pm): 82.6°F
6-hr Max Temp (2pm): 95.0°F
2018-06-19 12:56 94 72 104 49 320° 7 - 29.84 29.86 8 FEW280 None
2018-06-19 11:56 93 73 103 52 300° 8 - 29.85 29.87 10 FEW240 None
2018-06-19 10:56 91 74 101 58 280° 7 - 29.86 29.88 8 CLR None

Support USWX by starting your Amazon purchase here.